sensor_id;sensor_type;location;lat;lon;timestamp;P1;durP1;ratioP1;P2;durP2;ratioP2
74872;SDS011;65883;44.726;37.764;2023-01-19T04:15:31;12.48;;;3.47;;
74872;SDS011;65883;44.726;37.764;2023-01-19T04:16:33;17.40;;;3.80;;
74872;SDS011;65883;44.726;37.764;2023-01-19T04:17:34;15.20;;;3.58;;
74872;SDS011;65883;44.726;37.764;2023-01-19T04:18:35;16.25;;;3.60;;
74872;SDS011;65883;44.726;37.764;2023-01-19T04:19:36;19.52;;;3.88;;
74872;SDS011;65883;44.726;37.764;2023-01-19T04:20:37;17.30;;;3.70;;
74872;SDS011;65883;44.726;37.764;2023-01-19T04:21:38;15.63;;;4.20;;
74872;SDS011;65883;44.726;37.764;2023-01-19T04:22:39;14.93;;;4.10;;
74872;SDS011;65883;44.726;37.764;2023-01-19T04:23:40;13.80;;;3.95;;
74872;SDS011;65883;44.726;37.764;2023-01-19T04:24:41;16.17;;;4.50;;
74872;SDS011;65883;44.726;37.764;2023-01-19T04:25:42;13.55;;;3.78;;
74872;SDS011;65883;44.726;37.764;2023-01-19T04:26:43;17.67;;;3.97;;
74872;SDS011;65883;44.726;37.764;2023-01-19T04:27:44;12.50;;;3.30;;
74872;SDS011;65883;44.726;37.764;2023-01-19T04:28:47;12.00;;;4.00;;
74872;SDS011;65883;44.726;37.764;2023-01-19T04:29:49;13.60;;;3.35;;
74872;SDS011;65883;44.726;37.764;2023-01-19T04:30:50;12.40;;;3.47;;
74872;SDS011;65883;44.726;37.764;2023-01-19T04:31:51;12.48;;;3.40;;
74872;SDS011;65883;44.726;37.764;2023-01-19T04:32:57;11.80;;;2.92;;
74872;SDS011;65883;44.726;37.764;2023-01-19T04:33:58;11.82;;;3.00;;
74872;SDS011;65883;44.726;37.764;2023-01-19T04:34:59;16.13;;;3.78;;
74872;SDS011;65883;44.726;37.764;2023-01-19T04:36:00;14.98;;;3.78;;
74872;SDS011;65883;44.726;37.764;2023-01-19T04:37:03;15.90;;;3.80;;
74872;SDS011;65883;44.726;37.764;2023-01-19T04:38:04;11.40;;;3.15;;
74872;SDS011;65883;44.726;37.764;2023-01-19T04:39:05;12.15;;;3.08;;
74872;SDS011;65883;44.726;37.764;2023-01-19T04:40:08;12.40;;;2.83;;
74872;SDS011;65883;44.726;37.764;2023-01-19T04:41:09;12.98;;;2.92;;
74872;SDS011;65883;44.726;37.764;2023-01-19T04:42:10;10.13;;;3.50;;
74872;SDS011;65883;44.726;37.764;2023-01-19T04:43:12;8.45;;;3.00;;
74872;SDS011;65883;44.726;37.764;2023-01-19T04:44:13;11.27;;;3.10;;
74872;SDS011;65883;44.726;37.764;2023-01-19T04:45:14;9.55;;;2.97;;
74872;SDS011;65883;44.726;37.764;2023-01-19T04:46:16;12.77;;;3.10;;
74872;SDS011;65883;44.726;37.764;2023-01-19T04:47:17;12.60;;;3.47;;
74872;SDS011;65883;44.726;37.764;2023-01-19T04:48:18;11.88;;;3.28;;
74872;SDS011;65883;44.726;37.764;2023-01-19T04:49:26;9.73;;;3.20;;
74872;SDS011;65883;44.726;37.764;2023-01-19T04:50:27;13.10;;;3.65;;
74872;SDS011;65883;44.726;37.764;2023-01-19T04:51:28;11.60;;;3.30;;
74872;SDS011;65883;44.726;37.764;2023-01-19T04:52:32;11.23;;;3.03;;
74872;SDS011;65883;44.726;37.764;2023-01-19T04:53:34;8.82;;;3.47;;
74872;SDS011;65883;44.726;37.764;2023-01-19T04:54:35;13.85;;;3.63;;
74872;SDS011;65883;44.726;37.764;2023-01-19T04:55:36;12.20;;;3.42;;
74872;SDS011;65883;44.726;37.764;2023-01-19T04:56:38;10.10;;;2.92;;
74872;SDS011;65883;44.726;37.764;2023-01-19T04:57:40;8.52;;;3.00;;
74872;SDS011;65883;44.726;37.764;2023-01-19T04:58:44;12.85;;;2.92;;
74872;SDS011;65883;44.726;37.764;2023-01-19T04:59:45;11.83;;;2.93;;
74872;SDS011;65883;44.726;37.764;2023-01-19T05:00:46;11.00;;;2.85;;
74872;SDS011;65883;44.726;37.764;2023-01-19T05:01:47;12.48;;;2.67;;
74872;SDS011;65883;44.726;37.764;2023-01-19T05:02:48;11.75;;;2.92;;
74872;SDS011;65883;44.726;37.764;2023-01-19T05:03:49;11.18;;;2.88;;
74872;SDS011;65883;44.726;37.764;2023-01-19T05:04:50;12.10;;;2.85;;
74872;SDS011;65883;44.726;37.764;2023-01-19T05:05:51;10.77;;;2.72;;
74872;SDS011;65883;44.726;37.764;2023-01-19T05:06:55;9.50;;;2.60;;
74872;SDS011;65883;44.726;37.764;2023-01-19T05:07:57;9.43;;;2.80;;
74872;SDS011;65883;44.726;37.764;2023-01-19T05:08:58;11.18;;;2.63;;
74872;SDS011;65883;44.726;37.764;2023-01-19T05:09:59;10.70;;;3.03;;
74872;SDS011;65883;44.726;37.764;2023-01-19T05:11:00;11.93;;;2.90;;
74872;SDS011;65883;44.726;37.764;2023-01-19T05:12:01;10.40;;;2.90;;
74872;SDS011;65883;44.726;37.764;2023-01-19T05:13:02;9.32;;;2.75;;
74872;SDS011;65883;44.726;37.764;2023-01-19T05:14:04;9.90;;;2.55;;
74872;SDS011;65883;44.726;37.764;2023-01-19T05:15:06;11.07;;;2.83;;
74872;SDS011;65883;44.726;37.764;2023-01-19T05:16:08;9.98;;;2.65;;
74872;SDS011;65883;44.726;37.764;2023-01-19T05:17:10;8.00;;;2.25;;
74872;SDS011;65883;44.726;37.764;2023-01-19T05:18:11;9.27;;;2.70;;
74872;SDS011;65883;44.726;37.764;2023-01-19T05:19:15;10.98;;;2.53;;
74872;SDS011;65883;44.726;37.764;2023-01-19T05:20:16;9.98;;;2.80;;
74872;SDS011;65883;44.726;37.764;2023-01-19T05:21:17;9.32;;;2.65;;
74872;SDS011;65883;44.726;37.764;2023-01-19T05:22:18;9.70;;;2.70;;
74872;SDS011;65883;44.726;37.764;2023-01-19T05:23:19;9.45;;;2.78;;
74872;SDS011;65883;44.726;37.764;2023-01-19T05:24:20;9.43;;;2.63;;
74872;SDS011;65883;44.726;37.764;2023-01-19T05:25:21;9.77;;;2.65;;
74872;SDS011;65883;44.726;37.764;2023-01-19T05:26:22;10.32;;;2.50;;
74872;SDS011;65883;44.726;37.764;2023-01-19T05:27:26;9.65;;;2.95;;
74872;SDS011;65883;44.726;37.764;2023-01-19T05:28:27;8.23;;;2.60;;
74872;SDS011;65883;44.726;37.764;2023-01-19T05:29:29;10.15;;;2.90;;
74872;SDS011;65883;44.726;37.764;2023-01-19T05:30:30;11.82;;;2.85;;
74872;SDS011;65883;44.726;37.764;2023-01-19T05:31:31;10.13;;;2.78;;
74872;SDS011;65883;44.726;37.764;2023-01-19T05:32:32;9.27;;;2.50;;
74872;SDS011;65883;44.726;37.764;2023-01-19T05:33:33;8.48;;;2.60;;
74872;SDS011;65883;44.726;37.764;2023-01-19T05:34:34;9.63;;;2.58;;
74872;SDS011;65883;44.726;37.764;2023-01-19T05:35:35;8.43;;;2.60;;
74872;SDS011;65883;44.726;37.764;2023-01-19T05:36:36;8.37;;;2.80;;
74872;SDS011;65883;44.726;37.764;2023-01-19T05:37:37;8.38;;;2.42;;
74872;SDS011;65883;44.726;37.764;2023-01-19T05:38:39;8.52;;;2.83;;
74872;SDS011;65883;44.726;37.764;2023-01-19T05:39:39;9.60;;;2.63;;
74872;SDS011;65883;44.726;37.764;2023-01-19T05:40:40;9.68;;;2.53;;
74872;SDS011;65883;44.726;37.764;2023-01-19T05:41:41;8.82;;;2.55;;
74872;SDS011;65883;44.726;37.764;2023-01-19T05:42:44;8.77;;;2.50;;
74872;SDS011;65883;44.726;37.764;2023-01-19T05:43:45;9.63;;;2.40;;
74872;SDS011;65883;44.726;37.764;2023-01-19T05:44:46;8.85;;;2.60;;
74872;SDS011;65883;44.726;37.764;2023-01-19T05:45:47;8.57;;;2.60;;
74872;SDS011;65883;44.726;37.764;2023-01-19T05:46:48;8.30;;;2.30;;
74872;SDS011;65883;44.726;37.764;2023-01-19T05:47:49;8.93;;;2.22;;
74872;SDS011;65883;44.726;37.764;2023-01-19T05:48:50;7.13;;;2.40;;
74872;SDS011;65883;44.726;37.764;2023-01-19T05:49:51;9.30;;;2.53;;
74872;SDS011;65883;44.726;37.764;2023-01-19T05:50:58;9.35;;;2.38;;
74872;SDS011;65883;44.726;37.764;2023-01-19T05:51:59;9.15;;;2.80;;
74872;SDS011;65883;44.726;37.764;2023-01-19T05:53:00;7.82;;;2.45;;
74872;SDS011;65883;44.726;37.764;2023-01-19T05:54:05;8.30;;;2.35;;
74872;SDS011;65883;44.726;37.764;2023-01-19T05:55:09;7.50;;;2.40;;
74872;SDS011;65883;44.726;37.764;2023-01-19T05:56:10;7.18;;;2.30;;
74872;SDS011;65883;44.726;37.764;2023-01-19T05:57:11;7.47;;;2.50;;
74872;SDS011;65883;44.726;37.764;2023-01-19T05:58:12;8.93;;;2.53;;
74872;SDS011;65883;44.726;37.764;2023-01-19T05:59:13;8.15;;;2.30;;
74872;SDS011;65883;44.726;37.764;2023-01-19T06:00:14;9.65;;;2.25;;
74872;SDS011;65883;44.726;37.764;2023-01-19T06:01:18;8.23;;;2.40;;
74872;SDS011;65883;44.726;37.764;2023-01-19T06:02:19;6.88;;;2.30;;
74872;SDS011;65883;44.726;37.764;2023-01-19T06:03:27;6.83;;;2.20;;
74872;SDS011;65883;44.726;37.764;2023-01-19T06:04:28;6.60;;;2.20;;
74872;SDS011;65883;44.726;37.764;2023-01-19T06:05:29;8.73;;;2.23;;
74872;SDS011;65883;44.726;37.764;2023-01-19T06:06:33;8.00;;;2.20;;
74872;SDS011;65883;44.726;37.764;2023-01-19T06:07:34;8.37;;;2.43;;
74872;SDS011;65883;44.726;37.764;2023-01-19T06:08:35;7.45;;;2.08;;
74872;SDS011;65883;44.726;37.764;2023-01-19T06:09:36;7.27;;;2.00;;
74872;SDS011;65883;44.726;37.764;2023-01-19T06:10:37;7.55;;;2.10;;
74872;SDS011;65883;44.726;37.764;2023-01-19T06:11:38;6.65;;;2.20;;
74872;SDS011;65883;44.726;37.764;2023-01-19T06:12:39;7.60;;;2.28;;
74872;SDS011;65883;44.726;37.764;2023-01-19T06:13:40;8.18;;;2.30;;
74872;SDS011;65883;44.726;37.764;2023-01-19T06:14:42;7.00;;;2.10;;
74872;SDS011;65883;44.726;37.764;2023-01-19T06:15:42;7.28;;;2.22;;
74872;SDS011;65883;44.726;37.764;2023-01-19T06:16:44;7.77;;;2.43;;
74872;SDS011;65883;44.726;37.764;2023-01-19T06:17:45;7.50;;;2.33;;
74872;SDS011;65883;44.726;37.764;2023-01-19T06:18:46;7.03;;;2.33;;
74872;SDS011;65883;44.726;37.764;2023-01-19T06:19:47;6.93;;;1.90;;
74872;SDS011;65883;44.726;37.764;2023-01-19T06:20:47;6.65;;;2.10;;
74872;SDS011;65883;44.726;37.764;2023-01-19T06:21:48;7.30;;;2.10;;
74872;SDS011;65883;44.726;37.764;2023-01-19T06:22:51;6.75;;;2.20;;
74872;SDS011;65883;44.726;37.764;2023-01-19T06:23:52;6.18;;;1.90;;
74872;SDS011;65883;44.726;37.764;2023-01-19T06:24:53;8.75;;;2.53;;
74872;SDS011;65883;44.726;37.764;2023-01-19T06:25:54;7.68;;;2.42;;
74872;SDS011;65883;44.726;37.764;2023-01-19T06:26:55;6.85;;;2.10;;
74872;SDS011;65883;44.726;37.764;2023-01-19T06:27:56;7.03;;;1.97;;
74872;SDS011;65883;44.726;37.764;2023-01-19T06:28:57;7.43;;;2.30;;
74872;SDS011;65883;44.726;37.764;2023-01-19T06:29:58;7.50;;;2.23;;
74872;SDS011;65883;44.726;37.764;2023-01-19T06:30:59;7.13;;;2.08;;
74872;SDS011;65883;44.726;37.764;2023-01-19T06:32:01;6.50;;;1.80;;
74872;SDS011;65883;44.726;37.764;2023-01-19T06:33:01;7.53;;;2.10;;
74872;SDS011;65883;44.726;37.764;2023-01-19T06:34:06;7.22;;;1.90;;
74872;SDS011;65883;44.726;37.764;2023-01-19T06:35:07;5.78;;;1.90;;
74872;SDS011;65883;44.726;37.764;2023-01-19T06:36:08;6.05;;;1.90;;
74872;SDS011;65883;44.726;37.764;2023-01-19T06:37:09;5.60;;;1.95;;
74872;SDS011;65883;44.726;37.764;2023-01-19T06:38:15;7.35;;;2.00;;
74872;SDS011;65883;44.726;37.764;2023-01-19T06:39:20;6.63;;;2.00;;
74872;SDS011;65883;44.726;37.764;2023-01-19T06:40:21;7.13;;;2.10;;
74872;SDS011;65883;44.726;37.764;2023-01-19T06:41:22;6.35;;;2.10;;
74872;SDS011;65883;44.726;37.764;2023-01-19T06:42:23;7.10;;;2.00;;
74872;SDS011;65883;44.726;37.764;2023-01-19T06:43:24;6.70;;;1.90;;
74872;SDS011;65883;44.726;37.764;2023-01-19T06:44:26;6.60;;;1.88;;
74872;SDS011;65883;44.726;37.764;2023-01-19T06:45:27;7.53;;;2.13;;
74872;SDS011;65883;44.726;37.764;2023-01-19T06:46:28;6.28;;;2.03;;
74872;SDS011;65883;44.726;37.764;2023-01-19T06:47:28;6.60;;;1.95;;
74872;SDS011;65883;44.726;37.764;2023-01-19T06:48:29;5.43;;;1.88;;
74872;SDS011;65883;44.726;37.764;2023-01-19T06:49:30;7.72;;;2.20;;
74872;SDS011;65883;44.726;37.764;2023-01-19T06:50:31;7.90;;;2.28;;
74872;SDS011;65883;44.726;37.764;2023-01-19T06:51:35;8.55;;;1.95;;
74872;SDS011;65883;44.726;37.764;2023-01-19T06:52:35;6.82;;;2.00;;
74872;SDS011;65883;44.726;37.764;2023-01-19T06:53:41;6.88;;;1.88;;
74872;SDS011;65883;44.726;37.764;2023-01-19T06:54:43;6.07;;;1.80;;
74872;SDS011;65883;44.726;37.764;2023-01-19T06:55:45;6.93;;;2.20;;
74872;SDS011;65883;44.726;37.764;2023-01-19T06:56:48;6.65;;;2.13;;
74872;SDS011;65883;44.726;37.764;2023-01-19T06:57:58;6.70;;;2.00;;
74872;SDS011;65883;44.726;37.764;2023-01-19T06:58:59;7.32;;;1.98;;
74872;SDS011;65883;44.726;37.764;2023-01-19T07:00:00;6.33;;;1.70;;
74872;SDS011;65883;44.726;37.764;2023-01-19T07:01:04;6.10;;;1.90;;
74872;SDS011;65883;44.726;37.764;2023-01-19T07:02:07;6.68;;;1.80;;
74872;SDS011;65883;44.726;37.764;2023-01-19T07:03:15;5.68;;;1.63;;
74872;SDS011;65883;44.726;37.764;2023-01-19T07:04:21;7.50;;;2.00;;
74872;SDS011;65883;44.726;37.764;2023-01-19T07:05:22;6.50;;;1.88;;
74872;SDS011;65883;44.726;37.764;2023-01-19T07:06:24;6.07;;;1.83;;
74872;SDS011;65883;44.726;37.764;2023-01-19T07:07:25;5.78;;;2.05;;
74872;SDS011;65883;44.726;37.764;2023-01-19T07:08:34;6.68;;;2.08;;
74872;SDS011;65883;44.726;37.764;2023-01-19T07:09:36;5.32;;;1.67;;
74872;SDS011;65883;44.726;37.764;2023-01-19T07:10:37;6.70;;;1.80;;
74872;SDS011;65883;44.726;37.764;2023-01-19T07:11:38;6.57;;;1.85;;
74872;SDS011;65883;44.726;37.764;2023-01-19T07:12:41;5.80;;;1.70;;
74872;SDS011;65883;44.726;37.764;2023-01-19T07:13:45;6.97;;;2.10;;
74872;SDS011;65883;44.726;37.764;2023-01-19T07:14:50;5.55;;;1.63;;
74872;SDS011;65883;44.726;37.764;2023-01-19T07:15:52;5.50;;;1.90;;
74872;SDS011;65883;44.726;37.764;2023-01-19T07:16:52;6.20;;;1.77;;
74872;SDS011;65883;44.726;37.764;2023-01-19T07:17:56;5.82;;;1.73;;
74872;SDS011;65883;44.726;37.764;2023-01-19T07:18:58;5.88;;;1.80;;
74872;SDS011;65883;44.726;37.764;2023-01-19T07:19:59;6.70;;;1.90;;
74872;SDS011;65883;44.726;37.764;2023-01-19T07:20:59;6.50;;;1.90;;
74872;SDS011;65883;44.726;37.764;2023-01-19T07:22:00;6.05;;;1.83;;
74872;SDS011;65883;44.726;37.764;2023-01-19T07:23:02;7.30;;;1.75;;
74872;SDS011;65883;44.726;37.764;2023-01-19T07:24:03;5.90;;;1.75;;
74872;SDS011;65883;44.726;37.764;2023-01-19T07:25:05;5.60;;;1.75;;
74872;SDS011;65883;44.726;37.764;2023-01-19T07:26:08;5.85;;;1.80;;
74872;SDS011;65883;44.726;37.764;2023-01-19T07:27:09;5.55;;;1.90;;
74872;SDS011;65883;44.726;37.764;2023-01-19T07:28:14;6.90;;;1.88;;
74872;SDS011;65883;44.726;37.764;2023-01-19T07:29:15;6.33;;;1.70;;
74872;SDS011;65883;44.726;37.764;2023-01-19T07:30:16;5.63;;;1.65;;
74872;SDS011;65883;44.726;37.764;2023-01-19T07:31:17;5.83;;;1.77;;
74872;SDS011;65883;44.726;37.764;2023-01-19T07:32:19;5.60;;;1.70;;
74872;SDS011;65883;44.726;37.764;2023-01-19T07:33:22;5.30;;;1.45;;
74872;SDS011;65883;44.726;37.764;2023-01-19T07:34:24;5.53;;;1.70;;
74872;SDS011;65883;44.726;37.764;2023-01-19T07:35:25;5.65;;;1.65;;
74872;SDS011;65883;44.726;37.764;2023-01-19T07:36:26;5.63;;;1.60;;
74872;SDS011;65883;44.726;37.764;2023-01-19T07:37:27;5.97;;;1.60;;
74872;SDS011;65883;44.726;37.764;2023-01-19T07:38:30;6.05;;;1.75;;
74872;SDS011;65883;44.726;37.764;2023-01-19T07:39:31;5.97;;;1.70;;
74872;SDS011;65883;44.726;37.764;2023-01-19T07:40:35;6.75;;;1.88;;
74872;SDS011;65883;44.726;37.764;2023-01-19T07:41:40;5.90;;;1.80;;
74872;SDS011;65883;44.726;37.764;2023-01-19T07:42:47;5.78;;;1.90;;
74872;SDS011;65883;44.726;37.764;2023-01-19T07:43:49;6.22;;;1.80;;
74872;SDS011;65883;44.726;37.764;2023-01-19T07:44:53;5.70;;;1.80;;
74872;SDS011;65883;44.726;37.764;2023-01-19T07:45:55;5.83;;;1.70;;
74872;SDS011;65883;44.726;37.764;2023-01-19T07:46:56;5.18;;;1.58;;
74872;SDS011;65883;44.726;37.764;2023-01-19T07:47:57;6.28;;;1.63;;
74872;SDS011;65883;44.726;37.764;2023-01-19T07:48:58;5.72;;;1.70;;
74872;SDS011;65883;44.726;37.764;2023-01-19T07:49:59;5.72;;;1.80;;
74872;SDS011;65883;44.726;37.764;2023-01-19T07:51:01;6.35;;;1.90;;
74872;SDS011;65883;44.726;37.764;2023-01-19T07:52:11;5.80;;;1.60;;
74872;SDS011;65883;44.726;37.764;2023-01-19T07:53:12;5.88;;;1.60;;
74872;SDS011;65883;44.726;37.764;2023-01-19T07:54:13;5.82;;;1.80;;
74872;SDS011;65883;44.726;37.764;2023-01-19T07:55:23;5.10;;;1.70;;
74872;SDS011;65883;44.726;37.764;2023-01-19T07:56:24;5.05;;;1.40;;
74872;SDS011;65883;44.726;37.764;2023-01-19T07:57:27;5.47;;;1.80;;
74872;SDS011;65883;44.726;37.764;2023-01-19T07:58:30;5.45;;;1.73;;
74872;SDS011;65883;44.726;37.764;2023-01-19T07:59:31;6.38;;;1.90;;
74872;SDS011;65883;44.726;37.764;2023-01-19T08:00:33;5.70;;;1.73;;
74872;SDS011;65883;44.726;37.764;2023-01-19T08:01:35;6.10;;;1.73;;
74872;SDS011;65883;44.726;37.764;2023-01-19T08:02:36;5.32;;;1.60;;
74872;SDS011;65883;44.726;37.764;2023-01-19T08:03:37;4.50;;;1.60;;
74872;SDS011;65883;44.726;37.764;2023-01-19T08:04:39;4.93;;;1.60;;
74872;SDS011;65883;44.726;37.764;2023-01-19T08:05:40;5.43;;;1.50;;
74872;SDS011;65883;44.726;37.764;2023-01-19T08:06:44;4.70;;;1.40;;
74872;SDS011;65883;44.726;37.764;2023-01-19T08:07:46;5.27;;;1.50;;
74872;SDS011;65883;44.726;37.764;2023-01-19T08:08:47;5.43;;;1.70;;
74872;SDS011;65883;44.726;37.764;2023-01-19T08:09:48;5.15;;;1.90;;
74872;SDS011;65883;44.726;37.764;2023-01-19T08:10:49;4.83;;;1.53;;
74872;SDS011;65883;44.726;37.764;2023-01-19T08:11:51;5.07;;;1.50;;
74872;SDS011;65883;44.726;37.764;2023-01-19T08:12:53;5.30;;;1.60;;
74872;SDS011;65883;44.726;37.764;2023-01-19T08:13:54;5.57;;;1.60;;
74872;SDS011;65883;44.726;37.764;2023-01-19T08:14:55;6.05;;;1.67;;
74872;SDS011;65883;44.726;37.764;2023-01-19T08:15:56;5.22;;;1.70;;
74872;SDS011;65883;44.726;37.764;2023-01-19T08:17:00;5.93;;;1.55;;
74872;SDS011;65883;44.726;37.764;2023-01-19T08:18:02;6.22;;;1.80;;
74872;SDS011;65883;44.726;37.764;2023-01-19T08:19:09;5.43;;;1.50;;
74872;SDS011;65883;44.726;37.764;2023-01-19T08:20:10;4.70;;;1.50;;
74872;SDS011;65883;44.726;37.764;2023-01-19T08:21:12;5.25;;;1.60;;
74872;SDS011;65883;44.726;37.764;2023-01-19T08:22:13;5.93;;;1.90;;
74872;SDS011;65883;44.726;37.764;2023-01-19T08:23:14;5.68;;;1.60;;
74872;SDS011;65883;44.726;37.764;2023-01-19T08:24:18;6.40;;;1.70;;
74872;SDS011;65883;44.726;37.764;2023-01-19T08:25:22;5.63;;;1.60;;
74872;SDS011;65883;44.726;37.764;2023-01-19T08:27:27;4.85;;;1.45;;
74872;SDS011;65883;44.726;37.764;2023-01-19T08:28:31;6.05;;;1.45;;
74872;SDS011;65883;44.726;37.764;2023-01-19T08:29:32;4.70;;;1.33;;
74872;SDS011;65883;44.726;37.764;2023-01-19T08:30:33;5.40;;;1.63;;
74872;SDS011;65883;44.726;37.764;2023-01-19T08:31:43;5.25;;;1.50;;
74872;SDS011;65883;44.726;37.764;2023-01-19T08:32:47;5.63;;;1.70;;
74872;SDS011;65883;44.726;37.764;2023-01-19T08:33:48;4.97;;;1.48;;
74872;SDS011;65883;44.726;37.764;2023-01-19T08:34:49;4.88;;;1.50;;
74872;SDS011;65883;44.726;37.764;2023-01-19T08:35:50;5.17;;;1.50;;
74872;SDS011;65883;44.726;37.764;2023-01-19T08:36:55;5.38;;;1.50;;
74872;SDS011;65883;44.726;37.764;2023-01-19T08:37:57;4.53;;;1.40;;
74872;SDS011;65883;44.726;37.764;2023-01-19T08:39:00;5.00;;;1.40;;
74872;SDS011;65883;44.726;37.764;2023-01-19T08:40:01;5.45;;;1.48;;
74872;SDS011;65883;44.726;37.764;2023-01-19T08:41:02;5.63;;;1.50;;
74872;SDS011;65883;44.726;37.764;2023-01-19T08:42:03;5.32;;;1.50;;
74872;SDS011;65883;44.726;37.764;2023-01-19T08:43:08;4.75;;;1.30;;
74872;SDS011;65883;44.726;37.764;2023-01-19T08:44:14;5.22;;;1.48;;
74872;SDS011;65883;44.726;37.764;2023-01-19T08:45:17;4.22;;;1.38;;
74872;SDS011;65883;44.726;37.764;2023-01-19T08:46:18;4.53;;;1.30;;
74872;SDS011;65883;44.726;37.764;2023-01-19T08:47:21;4.03;;;1.30;;
74872;SDS011;65883;44.726;37.764;2023-01-19T08:48:22;4.90;;;1.50;;
74872;SDS011;65883;44.726;37.764;2023-01-19T08:49:23;5.30;;;1.30;;
74872;SDS011;65883;44.726;37.764;2023-01-19T08:50:24;4.60;;;1.50;;
74872;SDS011;65883;44.726;37.764;2023-01-19T08:51:29;4.88;;;1.40;;
74872;SDS011;65883;44.726;37.764;2023-01-19T08:52:33;5.10;;;1.50;;
74872;SDS011;65883;44.726;37.764;2023-01-19T08:53:34;4.90;;;1.55;;
74872;SDS011;65883;44.726;37.764;2023-01-19T08:54:35;5.45;;;1.60;;
74872;SDS011;65883;44.726;37.764;2023-01-19T08:55:36;5.43;;;1.33;;
74872;SDS011;65883;44.726;37.764;2023-01-19T08:56:38;4.70;;;1.33;;
74872;SDS011;65883;44.726;37.764;2023-01-19T08:57:39;5.18;;;1.50;;
74872;SDS011;65883;44.726;37.764;2023-01-19T08:58:44;4.90;;;1.40;;
74872;SDS011;65883;44.726;37.764;2023-01-19T08:59:45;4.45;;;1.38;;
74872;SDS011;65883;44.726;37.764;2023-01-19T09:00:46;4.90;;;1.58;;
74872;SDS011;65883;44.726;37.764;2023-01-19T09:01:48;4.55;;;1.40;;
74872;SDS011;65883;44.726;37.764;2023-01-19T09:02:49;4.97;;;1.50;;
74872;SDS011;65883;44.726;37.764;2023-01-19T09:03:50;4.70;;;1.52;;
74872;SDS011;65883;44.726;37.764;2023-01-19T09:04:52;4.70;;;1.30;;
74872;SDS011;65883;44.726;37.764;2023-01-19T09:05:56;4.75;;;1.25;;
74872;SDS011;65883;44.726;37.764;2023-01-19T09:06:57;4.85;;;1.42;;
74872;SDS011;65883;44.726;37.764;2023-01-19T09:07:57;3.90;;;1.20;;
74872;SDS011;65883;44.726;37.764;2023-01-19T09:08:58;5.03;;;1.40;;
74872;SDS011;65883;44.726;37.764;2023-01-19T09:09:59;4.78;;;1.33;;
74872;SDS011;65883;44.726;37.764;2023-01-19T09:11:00;4.45;;;1.30;;
74872;SDS011;65883;44.726;37.764;2023-01-19T09:12:01;5.15;;;1.50;;
74872;SDS011;65883;44.726;37.764;2023-01-19T09:13:03;4.63;;;1.25;;
74872;SDS011;65883;44.726;37.764;2023-01-19T09:14:06;4.45;;;1.40;;
74872;SDS011;65883;44.726;37.764;2023-01-19T09:15:07;4.18;;;1.30;;
74872;SDS011;65883;44.726;37.764;2023-01-19T09:16:10;4.93;;;1.40;;
74872;SDS011;65883;44.726;37.764;2023-01-19T09:17:12;4.30;;;1.50;;
74872;SDS011;65883;44.726;37.764;2023-01-19T09:18:15;4.00;;;1.23;;
74872;SDS011;65883;44.726;37.764;2023-01-19T09:19:18;4.50;;;1.40;;
74872;SDS011;65883;44.726;37.764;2023-01-19T09:20:19;5.28;;;1.48;;
74872;SDS011;65883;44.726;37.764;2023-01-19T09:21:20;5.03;;;1.33;;
74872;SDS011;65883;44.726;37.764;2023-01-19T09:22:20;5.13;;;1.50;;
74872;SDS011;65883;44.726;37.764;2023-01-19T09:23:21;4.70;;;1.48;;
74872;SDS011;65883;44.726;37.764;2023-01-19T09:24:25;4.43;;;1.40;;
74872;SDS011;65883;44.726;37.764;2023-01-19T09:25:29;4.38;;;1.33;;
74872;SDS011;65883;44.726;37.764;2023-01-19T09:26:31;5.07;;;1.35;;
74872;SDS011;65883;44.726;37.764;2023-01-19T09:27:31;4.68;;;1.30;;
74872;SDS011;65883;44.726;37.764;2023-01-19T09:28:33;4.55;;;1.33;;
74872;SDS011;65883;44.726;37.764;2023-01-19T09:29:34;4.15;;;1.33;;
74872;SDS011;65883;44.726;37.764;2023-01-19T09:30:36;4.43;;;1.33;;
74872;SDS011;65883;44.726;37.764;2023-01-19T09:31:40;4.32;;;1.30;;
74872;SDS011;65883;44.726;37.764;2023-01-19T09:32:43;4.82;;;1.20;;
74872;SDS011;65883;44.726;37.764;2023-01-19T09:33:44;4.95;;;1.30;;
74872;SDS011;65883;44.726;37.764;2023-01-19T09:34:45;5.13;;;1.48;;
74872;SDS011;65883;44.726;37.764;2023-01-19T09:35:47;4.22;;;1.25;;
74872;SDS011;65883;44.726;37.764;2023-01-19T09:36:50;4.23;;;1.40;;
74872;SDS011;65883;44.726;37.764;2023-01-19T09:37:51;4.53;;;1.50;;
74872;SDS011;65883;44.726;37.764;2023-01-19T09:38:52;4.90;;;1.40;;
74872;SDS011;65883;44.726;37.764;2023-01-19T09:39:53;4.35;;;1.25;;
74872;SDS011;65883;44.726;37.764;2023-01-19T09:40:55;4.05;;;1.40;;
74872;SDS011;65883;44.726;37.764;2023-01-19T09:42:01;4.38;;;1.42;;
74872;SDS011;65883;44.726;37.764;2023-01-19T09:43:23;4.60;;;1.30;;
74872;SDS011;65883;44.726;37.764;2023-01-19T09:44:41;5.30;;;1.40;;
74872;SDS011;65883;44.726;37.764;2023-01-19T09:45:49;4.25;;;1.20;;
74872;SDS011;65883;44.726;37.764;2023-01-19T09:46:56;4.38;;;1.20;;
74872;SDS011;65883;44.726;37.764;2023-01-19T09:47:57;4.97;;;1.30;;
74872;SDS011;65883;44.726;37.764;2023-01-19T09:49:01;5.00;;;1.40;;
74872;SDS011;65883;44.726;37.764;2023-01-19T09:50:31;4.53;;;1.30;;
74872;SDS011;65883;44.726;37.764;2023-01-19T09:51:40;4.73;;;1.30;;
74872;SDS011;65883;44.726;37.764;2023-01-19T09:52:44;4.00;;;1.20;;
74872;SDS011;65883;44.726;37.764;2023-01-19T09:54:58;4.20;;;1.20;;
74872;SDS011;65883;44.726;37.764;2023-01-19T09:56:01;4.90;;;1.40;;
74872;SDS011;65883;44.726;37.764;2023-01-19T09:57:02;4.50;;;1.30;;
74872;SDS011;65883;44.726;37.764;2023-01-19T09:58:09;4.15;;;1.20;;
74872;SDS011;65883;44.726;37.764;2023-01-19T09:59:30;4.22;;;1.30;;
74872;SDS011;65883;44.726;37.764;2023-01-19T10:00:32;4.32;;;1.40;;
74872;SDS011;65883;44.726;37.764;2023-01-19T10:01:36;4.20;;;1.30;;
74872;SDS011;65883;44.726;37.764;2023-01-19T10:02:48;4.82;;;1.33;;
74872;SDS011;65883;44.726;37.764;2023-01-19T10:06:24;5.00;;;1.40;;
74872;SDS011;65883;44.726;37.764;2023-01-19T10:09:17;4.45;;;1.42;;
74872;SDS011;65883;44.726;37.764;2023-01-19T10:10:36;4.57;;;1.30;;
74872;SDS011;65883;44.726;37.764;2023-01-19T10:11:48;4.50;;;1.33;;
74872;SDS011;65883;44.726;37.764;2023-01-19T10:14:43;4.05;;;1.13;;
74872;SDS011;65883;44.726;37.764;2023-01-19T10:17:00;4.55;;;1.17;;
74872;SDS011;65883;44.726;37.764;2023-01-19T10:18:23;4.05;;;1.20;;
74872;SDS011;65883;44.726;37.764;2023-01-19T10:19:37;4.63;;;1.20;;
74872;SDS011;65883;44.726;37.764;2023-01-19T10:21:15;5.13;;;1.27;;
74872;SDS011;65883;44.726;37.764;2023-01-19T10:22:22;4.07;;;1.17;;
74872;SDS011;65883;44.726;37.764;2023-01-19T10:24:38;4.38;;;1.27;;
74872;SDS011;65883;44.726;37.764;2023-01-19T10:25:43;4.50;;;1.30;;
74872;SDS011;65883;44.726;37.764;2023-01-19T10:26:45;4.27;;;1.10;;
74872;SDS011;65883;44.726;37.764;2023-01-19T10:27:52;4.18;;;1.17;;
74872;SDS011;65883;44.726;37.764;2023-01-19T10:28:54;4.40;;;1.20;;
74872;SDS011;65883;44.726;37.764;2023-01-19T10:30:01;4.70;;;1.10;;
74872;SDS011;65883;44.726;37.764;2023-01-19T10:31:02;4.45;;;1.20;;
74872;SDS011;65883;44.726;37.764;2023-01-19T10:33:10;4.07;;;1.20;;
74872;SDS011;65883;44.726;37.764;2023-01-19T10:34:15;4.40;;;1.20;;
74872;SDS011;65883;44.726;37.764;2023-01-19T10:35:20;4.43;;;1.10;;
74872;SDS011;65883;44.726;37.764;2023-01-19T10:36:32;4.57;;;1.30;;
74872;SDS011;65883;44.726;37.764;2023-01-19T10:37:38;4.28;;;1.13;;
74872;SDS011;65883;44.726;37.764;2023-01-19T10:38:45;4.33;;;1.30;;